sensor_id;sensor_type;location;lat;lon;timestamp;pressure;altitude;pressure_sealevel;temperature;humidity
22605;BME280;11469;49.024;8.246;2023-02-24T00:00:04;100069.22;;;8.96;100.00
22605;BME280;11469;49.024;8.246;2023-02-24T00:02:50;100069.94;;;8.93;100.00
22605;BME280;11469;49.024;8.246;2023-02-24T00:05:17;100071.09;;;8.92;100.00
22605;BME280;11469;49.024;8.246;2023-02-24T00:07:43;100070.84;;;8.97;100.00
22605;BME280;11469;49.024;8.246;2023-02-24T00:10:10;100071.09;;;8.92;100.00
22605;BME280;11469;49.024;8.246;2023-02-24T00:12:35;100074.88;;;8.84;100.00
22605;BME280;11469;49.024;8.246;2023-02-24T00:15:01;100073.72;;;8.85;100.00
22605;BME280;11469;49.024;8.246;2023-02-24T00:17:26;100066.03;;;8.82;100.00
22605;BME280;11469;49.024;8.246;2023-02-24T00:19:54;100064.41;;;8.81;100.00
22605;BME280;11469;49.024;8.246;2023-02-24T00:22:20;100060.09;;;8.84;100.00
22605;BME280;11469;49.024;8.246;2023-02-24T00:24:45;100058.47;;;8.83;100.00
22605;BME280;11469;49.024;8.246;2023-02-24T00:27:11;100061.53;;;8.78;100.00
22605;BME280;11469;49.024;8.246;2023-02-24T00:29:36;100049.34;;;8.70;100.00
22605;BME280;11469;49.024;8.246;2023-02-24T00:32:02;100049.78;;;8.72;100.00
22605;BME280;11469;49.024;8.246;2023-02-24T00:34:33;100049.25;;;8.67;100.00
22605;BME280;11469;49.024;8.246;2023-02-24T00:37:00;100048.88;;;8.68;100.00
22605;BME280;11469;49.024;8.246;2023-02-24T00:39:26;100046.09;;;8.68;100.00
22605;BME280;11469;49.024;8.246;2023-02-24T00:41:57;100045.53;;;8.62;100.00
22605;BME280;11469;49.024;8.246;2023-02-24T00:44:30;100040.91;;;8.54;100.00
22605;BME280;11469;49.024;8.246;2023-02-24T00:46:57;100038.31;;;8.61;100.00
22605;BME280;11469;49.024;8.246;2023-02-24T00:49:24;100040.31;;;8.61;100.00
22605;BME280;11469;49.024;8.246;2023-02-24T00:51:49;100039.13;;;8.62;100.00
22605;BME280;11469;49.024;8.246;2023-02-24T00:54:19;100044.63;;;8.58;100.00
22605;BME280;11469;49.024;8.246;2023-02-24T00:56:46;100034.50;;;8.54;100.00
22605;BME280;11469;49.024;8.246;2023-02-24T00:59:14;100043.81;;;8.58;100.00
22605;BME280;11469;49.024;8.246;2023-02-24T01:01:44;100046.50;;;8.54;100.00
22605;BME280;11469;49.024;8.246;2023-02-24T01:04:11;100048.13;;;8.55;100.00
22605;BME280;11469;49.024;8.246;2023-02-24T01:06:43;100038.84;;;8.51;100.00
22605;BME280;11469;49.024;8.246;2023-02-24T01:09:15;100038.13;;;8.54;100.00
22605;BME280;11469;49.024;8.246;2023-02-24T01:11:42;100037.31;;;8.54;100.00
22605;BME280;11469;49.024;8.246;2023-02-24T01:14:30;100033.34;;;8.55;100.00
22605;BME280;11469;49.024;8.246;2023-02-24T01:16:56;100035.16;;;8.47;100.00
22605;BME280;11469;49.024;8.246;2023-02-24T01:19:27;100033.25;;;8.51;100.00
22605;BME280;11469;49.024;8.246;2023-02-24T01:22:00;100030.09;;;8.53;100.00
22605;BME280;11469;49.024;8.246;2023-02-24T01:24:46;100036.59;;;8.57;100.00
22605;BME280;11469;49.024;8.246;2023-02-24T01:27:14;100026.34;;;8.61;100.00
22605;BME280;11469;49.024;8.246;2023-02-24T01:29:41;100032.28;;;8.59;100.00
22605;BME280;11469;49.024;8.246;2023-02-24T01:32:20;100033.69;;;8.53;100.00
22605;BME280;11469;49.024;8.246;2023-02-24T01:34:47;100034.81;;;8.64;100.00
22605;BME280;11469;49.024;8.246;2023-02-24T01:37:15;100034.72;;;8.61;100.00
22605;BME280;11469;49.024;8.246;2023-02-24T01:39:41;100024.00;;;8.63;100.00
22605;BME280;11469;49.024;8.246;2023-02-24T01:42:06;100019.47;;;8.58;100.00
22605;BME280;11469;49.024;8.246;2023-02-24T01:46:58;100013.72;;;8.67;100.00
22605;BME280;11469;49.024;8.246;2023-02-24T01:49:32;100019.31;;;8.67;100.00
22605;BME280;11469;49.024;8.246;2023-02-24T01:52:03;100012.81;;;8.63;100.00
22605;BME280;11469;49.024;8.246;2023-02-24T01:54:34;100006.78;;;8.61;100.00
22605;BME280;11469;49.024;8.246;2023-02-24T01:57:04;100000.63;;;8.55;100.00
22605;BME280;11469;49.024;8.246;2023-02-24T01:59:33;99992.16;;;8.52;100.00
22605;BME280;11469;49.024;8.246;2023-02-24T02:02:04;99994.88;;;8.48;100.00
22605;BME280;11469;49.024;8.246;2023-02-24T02:04:45;99985.41;;;8.53;100.00
22605;BME280;11469;49.024;8.246;2023-02-24T02:07:14;99989.22;;;8.45;100.00
22605;BME280;11469;49.024;8.246;2023-02-24T02:09:41;99982.16;;;8.51;100.00
22605;BME280;11469;49.024;8.246;2023-02-24T02:12:09;99984.06;;;8.47;100.00
22605;BME280;11469;49.024;8.246;2023-02-24T02:14:41;99987.03;;;8.38;100.00
22605;BME280;11469;49.024;8.246;2023-02-24T02:25:16;99977.56;;;8.43;100.00
22605;BME280;11469;49.024;8.246;2023-02-24T02:39:52;99969.81;;;8.36;100.00
22605;BME280;11469;49.024;8.246;2023-02-24T02:42:39;99963.66;;;8.30;100.00
22605;BME280;11469;49.024;8.246;2023-02-24T02:45:17;99963.16;;;8.41;100.00
22605;BME280;11469;49.024;8.246;2023-02-24T02:48:12;99961.88;;;8.38;100.00
22605;BME280;11469;49.024;8.246;2023-02-24T02:51:05;99964.59;;;8.35;100.00
22605;BME280;11469;49.024;8.246;2023-02-24T02:53:35;99954.72;;;8.25;100.00
22605;BME280;11469;49.024;8.246;2023-02-24T02:56:24;99953.06;;;8.36;100.00
22605;BME280;11469;49.024;8.246;2023-02-24T02:58:55;99951.09;;;8.37;100.00
22605;BME280;11469;49.024;8.246;2023-02-24T03:01:25;99952.59;;;8.34;100.00
22605;BME280;11469;49.024;8.246;2023-02-24T03:03:58;99957.94;;;8.39;100.00
22605;BME280;11469;49.024;8.246;2023-02-24T03:06:28;99951.44;;;8.35;100.00
22605;BME280;11469;49.024;8.246;2023-02-24T03:08:58;99951.22;;;8.28;100.00
22605;BME280;11469;49.024;8.246;2023-02-24T03:11:26;99951.44;;;8.35;100.00
22605;BME280;11469;49.024;8.246;2023-02-24T03:13:54;99953.41;;;8.35;100.00
22605;BME280;11469;49.024;8.246;2023-02-24T03:16:22;99946.41;;;8.41;100.00
22605;BME280;11469;49.024;8.246;2023-02-24T03:18:52;99945.94;;;8.39;100.00
22605;BME280;11469;49.024;8.246;2023-02-24T03:21:28;99940.41;;;8.26;100.00
22605;BME280;11469;49.024;8.246;2023-02-24T03:23:57;99936.91;;;8.29;100.00
22605;BME280;11469;49.024;8.246;2023-02-24T03:26:27;99924.47;;;8.27;100.00
22605;BME280;11469;49.024;8.246;2023-02-24T03:31:32;99941.66;;;8.29;100.00
22605;BME280;11469;49.024;8.246;2023-02-24T03:34:11;99939.66;;;8.14;100.00
22605;BME280;11469;49.024;8.246;2023-02-24T03:36:37;99934.72;;;8.23;100.00
22605;BME280;11469;49.024;8.246;2023-02-24T03:39:03;99933.53;;;8.24;100.00
22605;BME280;11469;49.024;8.246;2023-02-24T03:41:36;99936.69;;;8.22;100.00
22605;BME280;11469;49.024;8.246;2023-02-24T03:44:04;99940.56;;;8.18;100.00
22605;BME280;11469;49.024;8.246;2023-02-24T03:46:31;99935.72;;;8.30;100.00
22605;BME280;11469;49.024;8.246;2023-02-24T03:49:02;99935.03;;;8.34;100.00
22605;BME280;11469;49.024;8.246;2023-02-24T03:51:29;99939.84;;;8.21;100.00
22605;BME280;11469;49.024;8.246;2023-02-24T03:56:44;99932.53;;;8.16;100.00
22605;BME280;11469;49.024;8.246;2023-02-24T03:59:20;99933.69;;;8.15;100.00
22605;BME280;11469;49.024;8.246;2023-02-24T04:01:53;99935.38;;;8.32;100.00
22605;BME280;11469;49.024;8.246;2023-02-24T04:10:06;99933.16;;;8.10;100.00
22605;BME280;11469;49.024;8.246;2023-02-24T04:12:41;99929.03;;;8.19;100.00
22605;BME280;11469;49.024;8.246;2023-02-24T04:15:39;99924.91;;;8.29;100.00
22605;BME280;11469;49.024;8.246;2023-02-24T04:18:27;99920.56;;;8.16;100.00
22605;BME280;11469;49.024;8.246;2023-02-24T04:20:57;99913.63;;;8.10;100.00
22605;BME280;11469;49.024;8.246;2023-02-24T04:23:39;99913.97;;;8.08;100.00
22605;BME280;11469;49.024;8.246;2023-02-24T04:26:07;99919.59;;;8.24;100.00
22605;BME280;11469;49.024;8.246;2023-02-24T04:28:36;99917.47;;;8.33;100.00
22605;BME280;11469;49.024;8.246;2023-02-24T04:31:06;99909.34;;;8.28;100.00
22605;BME280;11469;49.024;8.246;2023-02-24T04:33:34;99909.09;;;8.33;100.00
22605;BME280;11469;49.024;8.246;2023-02-24T04:35:59;99899.38;;;8.43;100.00
22605;BME280;11469;49.024;8.246;2023-02-24T04:38:25;99903.50;;;8.33;100.00
22605;BME280;11469;49.024;8.246;2023-02-24T04:40:50;99895.22;;;8.37;100.00
22605;BME280;11469;49.024;8.246;2023-02-24T04:43:16;99891.31;;;8.25;100.00
22605;BME280;11469;49.024;8.246;2023-02-24T04:45:42;99895.44;;;8.16;100.00
22605;BME280;11469;49.024;8.246;2023-02-24T04:48:09;99898.38;;;8.07;100.00
22605;BME280;11469;49.024;8.246;2023-02-24T04:50:41;99888.41;;;8.06;100.00
22605;BME280;11469;49.024;8.246;2023-02-24T04:55:36;99875.72;;;8.24;100.00
22605;BME280;11469;49.024;8.246;2023-02-24T04:58:14;99873.41;;;8.26;100.00
22605;BME280;11469;49.024;8.246;2023-02-24T05:00:44;99865.09;;;8.14;100.00
22605;BME280;11469;49.024;8.246;2023-02-24T05:03:12;99858.50;;;8.07;100.00
22605;BME280;11469;49.024;8.246;2023-02-24T05:05:38;99858.16;;;8.08;100.00
22605;BME280;11469;49.024;8.246;2023-02-24T05:08:09;99859.88;;;7.97;100.00
22605;BME280;11469;49.024;8.246;2023-02-24T05:10:41;99858.50;;;8.07;100.00
22605;BME280;11469;49.024;8.246;2023-02-24T05:13:36;99858.84;;;8.05;100.00
22605;BME280;11469;49.024;8.246;2023-02-24T05:16:06;99850.69;;;8.12;100.00
22605;BME280;11469;49.024;8.246;2023-02-24T05:18:32;99848.34;;;8.14;100.00
22605;BME280;11469;49.024;8.246;2023-02-24T05:21:15;99842.03;;;8.17;100.00
22605;BME280;11469;49.024;8.246;2023-02-24T05:23:59;99844.91;;;8.05;100.00
22605;BME280;11469;49.024;8.246;2023-02-24T05:26:31;99841.75;;;8.07;100.00
22605;BME280;11469;49.024;8.246;2023-02-24T05:28:58;99837.81;;;8.08;100.00
22605;BME280;11469;49.024;8.246;2023-02-24T05:31:28;99840.78;;;7.99;100.00
22605;BME280;11469;49.024;8.246;2023-02-24T05:33:57;99835.81;;;7.92;100.00
22605;BME280;11469;49.024;8.246;2023-02-24T05:36:25;99828.88;;;7.86;100.00
22605;BME280;11469;49.024;8.246;2023-02-24T05:38:52;99830.16;;;7.89;100.00
22605;BME280;11469;49.024;8.246;2023-02-24T05:41:22;99827.00;;;7.90;100.00
22605;BME280;11469;49.024;8.246;2023-02-24T05:43:50;99819.09;;;7.92;100.00
22605;BME280;11469;49.024;8.246;2023-02-24T05:46:27;99816.66;;;7.91;100.00
22605;BME280;11469;49.024;8.246;2023-02-24T05:48:54;99813.84;;;7.91;100.00
22605;BME280;11469;49.024;8.246;2023-02-24T05:51:27;99809.09;;;7.91;100.00
22605;BME280;11469;49.024;8.246;2023-02-24T05:54:00;99806.38;;;8.11;100.00
22605;BME280;11469;49.024;8.246;2023-02-24T05:56:32;99809.63;;;7.97;100.00
22605;BME280;11469;49.024;8.246;2023-02-24T05:59:03;99801.16;;;7.93;100.00
22605;BME280;11469;49.024;8.246;2023-02-24T06:01:32;99797.94;;;7.91;100.00
22605;BME280;11469;49.024;8.246;2023-02-24T06:04:00;99800.72;;;7.91;100.00
22605;BME280;11469;49.024;8.246;2023-02-24T06:06:36;99793.88;;;7.89;100.00
22605;BME280;11469;49.024;8.246;2023-02-24T06:09:03;99798.19;;;7.86;100.00
22605;BME280;11469;49.024;8.246;2023-02-24T06:11:44;99787.28;;;7.81;100.00
22605;BME280;11469;49.024;8.246;2023-02-24T06:14:10;99785.22;;;7.78;100.00
22605;BME280;11469;49.024;8.246;2023-02-24T06:16:37;99788.81;;;7.79;100.00
22605;BME280;11469;49.024;8.246;2023-02-24T06:19:04;99784.03;;;7.79;100.00
22605;BME280;11469;49.024;8.246;2023-02-24T06:21:30;99776.94;;;7.82;100.00
22605;BME280;11469;49.024;8.246;2023-02-24T06:23:56;99783.69;;;7.81;100.00
22605;BME280;11469;49.024;8.246;2023-02-24T06:26:23;99789.28;;;7.81;100.00
22605;BME280;11469;49.024;8.246;2023-02-24T06:28:51;99789.72;;;7.83;100.00
22605;BME280;11469;49.024;8.246;2023-02-24T06:31:18;99783.00;;;7.99;100.00
22605;BME280;11469;49.024;8.246;2023-02-24T06:33:46;99781.72;;;7.97;100.00
22605;BME280;11469;49.024;8.246;2023-02-24T06:36:13;99780.72;;;7.89;100.00
22605;BME280;11469;49.024;8.246;2023-02-24T06:38:39;99776.69;;;7.87;100.00
22605;BME280;11469;49.024;8.246;2023-02-24T06:41:05;99772.72;;;7.88;100.00
22605;BME280;11469;49.024;8.246;2023-02-24T06:43:39;99780.28;;;7.87;100.00
22605;BME280;11469;49.024;8.246;2023-02-24T06:46:06;99776.59;;;7.83;100.00
22605;BME280;11469;49.024;8.246;2023-02-24T06:48:32;99785.41;;;7.85;100.00
22605;BME280;11469;49.024;8.246;2023-02-24T06:51:03;99775.78;;;7.83;100.00
22605;BME280;11469;49.024;8.246;2023-02-24T06:53:30;99785.41;;;7.85;100.00
22605;BME280;11469;49.024;8.246;2023-02-24T06:56:02;99792.25;;;7.88;100.00
22605;BME280;11469;49.024;8.246;2023-02-24T06:58:28;99794.59;;;7.86;100.00
22605;BME280;11469;49.024;8.246;2023-02-24T07:00:55;99787.84;;;7.87;100.00
22605;BME280;11469;49.024;8.246;2023-02-24T07:03:25;99789.91;;;7.90;100.00
22605;BME280;11469;49.024;8.246;2023-02-24T07:06:06;99783.63;;;7.93;100.00
22605;BME280;11469;49.024;8.246;2023-02-24T07:08:50;99774.78;;;7.91;100.00
22605;BME280;11469;49.024;8.246;2023-02-24T07:11:17;99779.22;;;7.92;100.00
22605;BME280;11469;49.024;8.246;2023-02-24T07:13:47;99783.63;;;7.93;100.00
22605;BME280;11469;49.024;8.246;2023-02-24T07:16:15;99784.53;;;7.97;100.00
22605;BME280;11469;49.024;8.246;2023-02-24T07:18:42;99793.81;;;8.01;100.00
22605;BME280;11469;49.024;8.246;2023-02-24T07:21:09;99797.47;;;8.05;100.00
22605;BME280;11469;49.024;8.246;2023-02-24T07:23:41;99785.13;;;8.06;100.00
22605;BME280;11469;49.024;8.246;2023-02-24T07:26:19;99780.34;;;8.07;100.00
22605;BME280;11469;49.024;8.246;2023-02-24T07:28:48;99772.00;;;8.07;100.00
22605;BME280;11469;49.024;8.246;2023-02-24T07:31:18;99776.50;;;8.11;100.00
22605;BME280;11469;49.024;8.246;2023-02-24T07:33:46;99767.75;;;8.13;100.00
22605;BME280;11469;49.024;8.246;2023-02-24T07:36:14;99761.81;;;8.14;100.00
22605;BME280;11469;49.024;8.246;2023-02-24T07:38:41;99761.19;;;8.21;100.00
22605;BME280;11469;49.024;8.246;2023-02-24T07:41:07;99758.84;;;8.23;100.00
22605;BME280;11469;49.024;8.246;2023-02-24T07:43:37;99755.16;;;8.19;100.00
22605;BME280;11469;49.024;8.246;2023-02-24T07:46:12;99756.16;;;8.26;100.00
22605;BME280;11469;49.024;8.246;2023-02-24T07:48:38;99766.59;;;8.29;100.00
22605;BME280;11469;49.024;8.246;2023-02-24T07:51:13;99766.44;;;8.38;100.00
22605;BME280;11469;49.024;8.246;2023-02-24T07:53:43;99759.50;;;8.48;100.00
22605;BME280;11469;49.024;8.246;2023-02-24T07:56:13;99759.19;;;8.53;100.00
22605;BME280;11469;49.024;8.246;2023-02-24T07:58:39;99758.91;;;8.58;100.00
22605;BME280;11469;49.024;8.246;2023-02-24T08:01:07;99767.81;;;8.63;100.00
22605;BME280;11469;49.024;8.246;2023-02-24T08:03:34;99756.63;;;8.63;100.00
22605;BME280;11469;49.024;8.246;2023-02-24T08:06:05;99757.97;;;8.70;100.00
22605;BME280;11469;49.024;8.246;2023-02-24T08:08:43;99746.00;;;8.69;100.00
22605;BME280;11469;49.024;8.246;2023-02-24T08:11:40;99751.22;;;8.71;100.00
22605;BME280;11469;49.024;8.246;2023-02-24T08:14:07;99759.06;;;8.65;100.00
22605;BME280;11469;49.024;8.246;2023-02-24T08:16:41;99763.03;;;8.64;100.00
22605;BME280;11469;49.024;8.246;2023-02-24T08:19:14;99755.53;;;8.68;100.00
22605;BME280;11469;49.024;8.246;2023-02-24T08:21:45;99747.34;;;8.75;100.00
22605;BME280;11469;49.024;8.246;2023-02-24T08:24:23;99742.19;;;8.77;100.00
22605;BME280;11469;49.024;8.246;2023-02-24T08:26:55;99755.06;;;8.82;100.00
22605;BME280;11469;49.024;8.246;2023-02-24T08:29:34;99748.31;;;8.83;100.00
22605;BME280;11469;49.024;8.246;2023-02-24T08:32:10;99742.34;;;8.84;99.78
22605;BME280;11469;49.024;8.246;2023-02-24T08:34:36;99742.34;;;8.84;99.36
22605;BME280;11469;49.024;8.246;2023-02-24T08:37:03;99739.91;;;8.83;98.40
22605;BME280;11469;49.024;8.246;2023-02-24T08:39:28;99741.09;;;8.82;98.08
22605;BME280;11469;49.024;8.246;2023-02-24T08:41:57;99734.25;;;8.79;97.71
22605;BME280;11469;49.024;8.246;2023-02-24T08:44:23;99738.75;;;8.84;97.89
22605;BME280;11469;49.024;8.246;2023-02-24T08:46:52;99732.88;;;8.89;97.45
22605;BME280;11469;49.024;8.246;2023-02-24T08:49:18;99728.97;;;8.93;97.79
22605;BME280;11469;49.024;8.246;2023-02-24T08:51:46;99732.22;;;8.95;97.24
22605;BME280;11469;49.024;8.246;2023-02-24T08:54:15;99726.66;;;8.99;97.48
22605;BME280;11469;49.024;8.246;2023-02-24T08:56:45;99727.44;;;8.96;95.33
22605;BME280;11469;49.024;8.246;2023-02-24T08:59:21;99723.06;;;8.98;95.95
22605;BME280;11469;49.024;8.246;2023-02-24T09:01:57;99725.00;;;8.94;94.33
22605;BME280;11469;49.024;8.246;2023-02-24T09:04:48;99719.41;;;8.94;95.08
22605;BME280;11469;49.024;8.246;2023-02-24T09:07:18;99719.31;;;9.10;96.58
22605;BME280;11469;49.024;8.246;2023-02-24T09:09:45;99726.59;;;9.15;95.56
22605;BME280;11469;49.024;8.246;2023-02-24T09:12:12;99726.00;;;9.06;95.33
22605;BME280;11469;49.024;8.246;2023-02-24T09:14:50;99722.78;;;9.04;96.16
22605;BME280;11469;49.024;8.246;2023-02-24T09:17:20;99722.78;;;9.04;96.24
22605;BME280;11469;49.024;8.246;2023-02-24T09:19:53;99718.06;;;9.08;96.36
22605;BME280;11469;49.024;8.246;2023-02-24T09:22:45;99718.88;;;9.08;96.72
22605;BME280;11469;49.024;8.246;2023-02-24T09:25:33;99713.44;;;9.15;98.39
22605;BME280;11469;49.024;8.246;2023-02-24T09:28:10;99710.28;;;9.17;96.39
22605;BME280;11469;49.024;8.246;2023-02-24T09:30:43;99709.91;;;9.18;96.90
22605;BME280;11469;49.024;8.246;2023-02-24T09:33:25;99702.75;;;9.21;96.07
22605;BME280;11469;49.024;8.246;2023-02-24T09:36:00;99703.78;;;9.13;95.40
22605;BME280;11469;49.024;8.246;2023-02-24T09:38:41;99697.75;;;9.11;96.25
22605;BME280;11469;49.024;8.246;2023-02-24T09:41:44;99706.28;;;8.98;96.68
22605;BME280;11469;49.024;8.246;2023-02-24T09:44:53;99701.97;;;9.01;99.05
22605;BME280;11469;49.024;8.246;2023-02-24T09:47:42;99706.00;;;9.04;99.53
22605;BME280;11469;49.024;8.246;2023-02-24T09:52:57;99675.91;;;9.16;99.60
22605;BME280;11469;49.024;8.246;2023-02-24T10:04:02;99672.97;;;9.51;97.76
22605;BME280;11469;49.024;8.246;2023-02-24T10:06:39;99676.13;;;9.50;96.05
22605;BME280;11469;49.024;8.246;2023-02-24T10:09:25;99676.25;;;9.57;95.94
22605;BME280;11469;49.024;8.246;2023-02-24T10:12:00;99661.22;;;9.65;96.11
22605;BME280;11469;49.024;8.246;2023-02-24T10:14:42;99663.72;;;9.70;94.77
22605;BME280;11469;49.024;8.246;2023-02-24T10:17:14;99659.34;;;9.73;93.53
22605;BME280;11469;49.024;8.246;2023-02-24T10:19:54;99656.25;;;9.78;91.87
22605;BME280;11469;49.024;8.246;2023-02-24T10:22:36;99650.97;;;9.73;89.82
22605;BME280;11469;49.024;8.246;2023-02-24T10:27:50;99653.56;;;9.85;89.57
22605;BME280;11469;49.024;8.246;2023-02-24T10:35:42;99638.72;;;10.07;88.99
22605;BME280;11469;49.024;8.246;2023-02-24T10:38:08;99630.94;;;10.20;87.61
22605;BME280;11469;49.024;8.246;2023-02-24T10:40:44;99619.84;;;10.27;86.06
22605;BME280;11469;49.024;8.246;2023-02-24T10:43:19;99627.50;;;10.30;85.66
22605;BME280;11469;49.024;8.246;2023-02-24T10:45:55;99628.34;;;10.34;85.90
22605;BME280;11469;49.024;8.246;2023-02-24T10:48:34;99626.44;;;10.42;87.00
22605;BME280;11469;49.024;8.246;2023-02-24T10:51:16;99626.53;;;10.49;85.75
22605;BME280;11469;49.024;8.246;2023-02-24T10:54:03;99620.69;;;10.61;86.60
22605;BME280;11469;49.024;8.246;2023-02-24T10:56:48;99613.53;;;10.63;87.19
22605;BME280;11469;49.024;8.246;2023-02-24T10:59:41;99606.09;;;10.78;88.46
22605;BME280;11469;49.024;8.246;2023-02-24T11:02:24;99595.34;;;10.84;86.94
22605;BME280;11469;49.024;8.246;2023-02-24T11:05:12;99599.44;;;10.93;86.29
22605;BME280;11469;49.024;8.246;2023-02-24T11:08:08;99595.78;;;10.89;85.81
22605;BME280;11469;49.024;8.246;2023-02-24T11:10:40;99591.84;;;10.94;85.79
22605;BME280;11469;49.024;8.246;2023-02-24T11:13:17;99583.06;;;10.95;84.40
22605;BME280;11469;49.024;8.246;2023-02-24T11:16:02;99580.63;;;10.94;83.74
22605;BME280;11469;49.024;8.246;2023-02-24T11:18:47;99565.50;;;11.02;83.82
22605;BME280;11469;49.024;8.246;2023-02-24T11:21:17;99559.50;;;11.04;83.45
22605;BME280;11469;49.024;8.246;2023-02-24T11:23:49;99551.13;;;11.07;84.05
22605;BME280;11469;49.024;8.246;2023-02-24T11:26:18;99549.13;;;11.08;85.13
22605;BME280;11469;49.024;8.246;2023-02-24T11:28:56;99541.53;;;11.08;83.97
22605;BME280;11469;49.024;8.246;2023-02-24T11:31:46;99532.34;;;11.11;82.48
22605;BME280;11469;49.024;8.246;2023-02-24T11:42:15;99520.91;;;10.90;87.99
22605;BME280;11469;49.024;8.246;2023-02-24T11:45:00;99512.88;;;10.85;87.36
22605;BME280;11469;49.024;8.246;2023-02-24T11:47:34;99506.47;;;10.84;87.83
22605;BME280;11469;49.024;8.246;2023-02-24T11:50:27;99510.03;;;10.81;88.26
22605;BME280;11469;49.024;8.246;2023-02-24T11:52:57;99499.22;;;10.80;87.28
22605;BME280;11469;49.024;8.246;2023-02-24T11:55:33;99490.53;;;10.95;86.87
22605;BME280;11469;49.024;8.246;2023-02-24T11:58:06;99479.34;;;10.99;86.65
22605;BME280;11469;49.024;8.246;2023-02-24T12:00:37;99474.22;;;11.05;86.43
22605;BME280;11469;49.024;8.246;2023-02-24T12:03:13;99464.34;;;11.21;86.05
22605;BME280;11469;49.024;8.246;2023-02-24T12:05:53;99456.28;;;11.16;84.47
22605;BME280;11469;49.024;8.246;2023-02-24T12:08:48;99452.00;;;11.37;84.11
22605;BME280;11469;49.024;8.246;2023-02-24T12:14:44;99447.31;;;11.51;84.83
22605;BME280;11469;49.024;8.246;2023-02-24T12:17:37;99450.16;;;11.58;84.62
22605;BME280;11469;49.024;8.246;2023-02-24T12:20:17;99451.31;;;11.50;83.62
22605;BME280;11469;49.024;8.246;2023-02-24T12:25:33;99436.84;;;11.45;84.53
22605;BME280;11469;49.024;8.246;2023-02-24T12:31:05;99429.53;;;11.29;85.42
22605;BME280;11469;49.024;8.246;2023-02-24T12:33:59;99429.94;;;11.28;85.73
22605;BME280;11469;49.024;8.246;2023-02-24T12:44:29;99408.56;;;11.09;88.03
22605;BME280;11469;49.024;8.246;2023-02-24T12:47:03;99416.16;;;11.09;88.52
22605;BME280;11469;49.024;8.246;2023-02-24T12:52:19;99408.06;;;11.00;88.13
22605;BME280;11469;49.024;8.246;2023-02-24T13:00:04;99389.69;;;11.03;88.63
22605;BME280;11469;49.024;8.246;2023-02-24T13:05:41;99375.66;;;11.03;89.05
22605;BME280;11469;49.024;8.246;2023-02-24T13:08:27;99371.69;;;11.07;88.34
22605;BME280;11469;49.024;8.246;2023-02-24T13:11:12;99374.03;;;10.98;89.39
22605;BME280;11469;49.024;8.246;2023-02-24T13:13:55;99363.22;;;11.00;89.23
22605;BME280;11469;49.024;8.246;2023-02-24T13:16:29;99366.84;;;11.01;89.01
22605;BME280;11469;49.024;8.246;2023-02-24T13:19:18;99355.13;;;10.88;88.95
22605;BME280;11469;49.024;8.246;2023-02-24T13:24:21;99353.50;;;10.83;88.60
22605;BME280;11469;49.024;8.246;2023-02-24T13:26:47;99349.44;;;10.77;89.10
22605;BME280;11469;49.024;8.246;2023-02-24T13:29:14;99344.63;;;10.74;88.96
22605;BME280;11469;49.024;8.246;2023-02-24T13:31:48;99341.41;;;10.72;90.08
22605;BME280;11469;49.024;8.246;2023-02-24T13:34:40;99333.38;;;10.71;89.33
22605;BME280;11469;49.024;8.246;2023-02-24T13:37:08;99336.50;;;10.62;89.67
22605;BME280;11469;49.024;8.246;2023-02-24T13:39:36;99334.09;;;10.60;90.45
22605;BME280;11469;49.024;8.246;2023-02-24T13:42:20;99328.50;;;10.60;90.69
22605;BME280;11469;49.024;8.246;2023-02-24T13:45:38;99335.66;;;10.54;90.13
22605;BME280;11469;49.024;8.246;2023-02-24T13:55:31;99317.56;;;10.48;90.23
22605;BME280;11469;49.024;8.246;2023-02-24T13:58:08;99319.94;;;10.43;89.33
22605;BME280;11469;49.024;8.246;2023-02-24T14:03:31;99311.53;;;10.43;91.02
22605;BME280;11469;49.024;8.246;2023-02-24T14:05:58;99306.38;;;10.48;89.92
22605;BME280;11469;49.024;8.246;2023-02-24T14:08:32;99296.75;;;10.46;89.72
22605;BME280;11469;49.024;8.246;2023-02-24T14:10:59;99297.59;;;10.50;89.94
22605;BME280;11469;49.024;8.246;2023-02-24T14:13:28;99290.41;;;10.52;90.48
22605;BME280;11469;49.024;8.246;2023-02-24T14:16:00;99273.97;;;10.51;90.28
22605;BME280;11469;49.024;8.246;2023-02-24T14:18:27;99284.78;;;10.49;89.51
22605;BME280;11469;49.024;8.246;2023-02-24T14:20:54;99285.59;;;10.53;89.92
22605;BME280;11469;49.024;8.246;2023-02-24T14:25:54;99271.16;;;10.47;89.97
22605;BME280;11469;49.024;8.246;2023-02-24T14:28:24;99273.94;;;10.47;89.51
22605;BME280;11469;49.024;8.246;2023-02-24T14:30:53;99274.38;;;10.49;89.44
22605;BME280;11469;49.024;8.246;2023-02-24T14:33:31;99257.16;;;10.47;90.11
22605;BME280;11469;49.024;8.246;2023-02-24T14:35:57;99263.50;;;10.41;89.02
22605;BME280;11469;49.024;8.246;2023-02-24T14:40:56;99256.31;;;10.40;88.13
22605;BME280;11469;49.024;8.246;2023-02-24T14:43:22;99253.53;;;10.47;88.56
22605;BME280;11469;49.024;8.246;2023-02-24T14:45:49;99249.59;;;10.55;88.06
22605;BME280;11469;49.024;8.246;2023-02-24T14:48:41;99248.38;;;10.52;88.01
22605;BME280;11469;49.024;8.246;2023-02-24T14:51:17;99240.38;;;10.51;87.47
22605;BME280;11469;49.024;8.246;2023-02-24T14:53:55;99242.00;;;10.55;87.17
22605;BME280;11469;49.024;8.246;2023-02-24T14:56:27;99239.22;;;10.59;87.24
22605;BME280;11469;49.024;8.246;2023-02-24T14:59:07;99236.38;;;10.52;87.18
22605;BME280;11469;49.024;8.246;2023-02-24T15:01:42;99235.56;;;10.51;87.41
22605;BME280;11469;49.024;8.246;2023-02-24T15:04:34;99243.13;;;10.47;87.91
22605;BME280;11469;49.024;8.246;2023-02-24T15:07:00;99240.31;;;10.44;86.62
22605;BME280;11469;49.024;8.246;2023-02-24T15:09:33;99233.50;;;10.45;87.40
22605;BME280;11469;49.024;8.246;2023-02-24T15:12:08;99231.97;;;10.51;87.00
22605;BME280;11469;49.024;8.246;2023-02-24T15:14:35;99231.97;;;10.51;86.95
22605;BME280;11469;49.024;8.246;2023-02-24T15:17:07;99226.31;;;10.44;87.19
22605;BME280;11469;49.024;8.246;2023-02-24T15:19:38;99221.91;;;10.39;88.15